Aeroporto :
LOGIN :

Iscrizione | Disclaimer

   EN    FR    IT 

 










Sommario :    VFR   VFR Marginale   IFR   IFR Intensivo   IFR Molto Intensivo
Visibilità : 
Base nubi : 
>= 8 km
>= 3000ft
5 / 8 km
1000 / 3000 ft
1500m / 5 km
500 / 1000 ft
800 / 1500m
200 / 500 ft
< 800m
< 200 ft
Simboli :   Temporali  Nebbia  Neve Forte  Precipitazioni Forti  Vento > 20 kt
SIGMETs :   Varie  Temporali  Ghiacco  Turbolenza  Onda orograficha  Ceneri Vulcaniche






- Altitudine del aeroporto : 297 ft
- Codice IATA : UIP


LFRQ - Quimper Pluguffan

ULTIMO METAR :
  • 210930Z AUTO 31012KT 9999 FEW023 BKN034 18/13 Q1015 NOSIG

METARs OBSOLETI :
  • 210900Z AUTO 32013KT 290V350 9999 FEW020 BKN033 OVC039 18/13 Q1015 NOSIG
  • 210830Z AUTO 31013KT 9999 FEW017 SCT022 BKN036 17/14 Q1015 NOSIG
  • 210800Z AUTO 32012KT 280V340 9999 SCT016 BKN024 BKN029 17/14 Q1015 NOSIG
  • 210730Z AUTO 32013KT 9999 BKN015 BKN020 BKN025 17/15 Q1014 NOSIG
  • 210700Z AUTO 32009KT 9999 FEW022 OVC034 16/14 Q1014 TEMPO BKN011
  • 210630Z AUTO 33010KT 9999 BKN014 BKN023 OVC033 16/15 Q1014 BECMG BKN030
  • 210600Z AUTO 32007KT 9999 FEW013 OVC027 16/14 Q1013 TEMPO BKN011
  • 210530Z AUTO 32009KT 9999 FEW012 SCT021 BKN026 16/14 Q1013 TEMPO BKN011
  • 210500Z AUTO 32011KT 9999 BKN011 BKN018 OVC023 16/15 Q1012
  • 210430Z AUTO 32013KT 9999 FEW020 BKN027 BKN032 16/14 Q1012

TAF TAF LFRQ
Valido dal 21 a 06 ore il 22 a 06 ore UTC


210500Z 2106/2206 34010KT 9999 BKN030
PROB40
TEMPO 2106/2108 BKN011
BECMG 2114/2116 28010KT
BECMG 2119/2121 22005KT
BECMG 2123/2201 BKN012
TEMPO 2201/2206 3000 -DZ OVC006



MetMap, La meteo Aeronautica in un colpo d'occhio ! - Copyright ORBIFLY Dicembre 2007 - Disclaimer

ORBIFLY MET'MAP TEAM :

Programmazione e sviluppo : Alexandra Zaïnal
Concezione : Baudouin d'Aumeries
Supporto tecnico e logistico : Manuel Goepfert
Aiuto : Marc-Olivier Méhu
Aiuto per la traduzione : Arnaldo La Scala




FONTI E CREDITI :

   NOAA